| Date | Time | Temp. (oF) | Dew Point (oF) | Rel. Hum. (%) | Press. (in.) | Wind Dir. | Wind Speed (mph) | Hourly Rainfall (in.) |
|
|---|---|---|---|---|---|---|---|---|---|
| 1 | 06/24 | 00:00 | 75 | 69 | 84 | 30.14 | S | 3 | 0.00 |
| 2 | 06/23 | 23:00 | 76 | 69 | 80 | 30.14 | S | 3 | 0.00 |
| 3 | 06/23 | 22:00 | 79 | 68 | 70 | 30.14 | S | 1 | 0.00 |
| 4 | 06/23 | 21:00 | 80 | 66 | 64 | 30.11 | SSE | 4 | 0.00 |
| 5 | 06/23 | 20:00 | 84 | 67 | 58 | 30.11 | SSW | 4 | 0.00 |
| 6 | 06/23 | 19:00 | 86 | 66 | 53 | 30.11 | S | 4 | 0.00 |
| 7 | 06/23 | 18:00 | 87 | 66 | 51 | 30.10 | SSW | 7 | 0.00 |
| 8 | 06/23 | 17:00 | 88 | 66 | 49 | 30.13 | S | 6 | 0.00 |
| 9 | 06/23 | 16:00 | 88 | 63 | 45 | 30.15 | SW | 4 | 0.00 |
| 10 | 06/23 | 15:00 | 87 | 65 | 50 | 30.17 | S | 3 | 0.00 |
| 11 | 06/23 | 14:00 | 86 | 66 | 52 | 30.18 | SSW | 7 | 0.00 |
| 12 | 06/23 | 13:00 | 84 | 65 | 55 | 30.21 | SW | 4 | 0.00 |
| 13 | 06/23 | 12:00 | 83 | 67 | 60 | 30.24 | W | 4 | 0.00 |
| 14 | 06/23 | 11:00 | 80 | 67 | 66 | 30.25 | SW | 3 | 0.00 |
| 15 | 06/23 | 10:00 | 77 | 68 | 75 | 30.27 | SW | 2 | 0.00 |
| 16 | 06/23 | 09:00 | 73 | 65 | 78 | 30.26 | SSW | 1 | 0.00 |
| 17 | 06/23 | 08:00 | 68 | 63 | 86 | 30.26 | SSE | 2 | 0.00 |
| 18 | 06/23 | 07:00 | 64 | 61 | 91 | 30.26 | NE | 0 | 0.00 |
| 19 | 06/23 | 06:00 | 64 | 61 | 91 | 30.25 | ESE | 1 | 0.00 |
| 20 | 06/23 | 05:00 | 65 | 60 | 86 | 30.25 | S | 0 | 0.00 |
| 21 | 06/23 | 04:00 | 68 | 61 | 80 | 30.26 | WSW | 0 | 0.00 |
| 22 | 06/23 | 03:00 | 69 | 61 | 78 | 30.27 | S | 2 | 0.00 |
| 23 | 06/23 | 02:00 | 69 | 61 | 77 | 30.28 | S | 2 | 0.00 |
| 24 | 06/23 | 01:00 | 72 | 61 | 70 | 30.29 | SSW | 2 | 0.00 |